Time;durP1;ratioP1;P1;durP2;ratioP2;P2;SDS_P1;SDS_P2;PMS_P1;PMS_P2;Temp;Humidity;BMP_temperature;BMP_pressure;BME280_temperature;BME280_humidity;BME280_pressure;Samples;Min_cycle;Max_cycle;Signal;HPM_P1;HPM_P2
2023/08/07 00:01:26;;;;;;;4.50;4.10;;;17.80;99.90;;;;;;5082628;28;20469;-82
2023/08/07 00:03:53;;;;;;;4.73;3.43;;;17.80;99.90;;;;;;5093975;28;20469;-81
2023/08/07 00:06:22;;;;;;;3.93;3.63;;;17.80;99.90;;;;;;5094330;28;20469;-82
2023/08/07 00:08:51;;;;;;;4.37;3.97;;;17.70;99.90;;;;;;5092697;28;20507;-81
2023/08/07 00:11:18;;;;;;;6.50;4.30;;;17.70;99.90;;;;;;5094374;28;20461;-83
2023/08/07 00:13:47;;;;;;;5.73;5.20;;;17.70;99.90;;;;;;5081393;28;20454;-81
2023/08/07 00:16:14;;;;;;;6.20;5.70;;;17.70;99.90;;;;;;5083363;28;20467;-81
2023/08/07 00:18:44;;;;;;;210.03;149.80;;;17.70;99.90;;;;;;5096505;28;20540;-80
2023/08/07 00:21:10;;;;;;;12.80;10.77;;;17.70;99.90;;;;;;5100193;28;20492;-81
2023/08/07 00:23:38;;;;;;;11.33;10.13;;;17.70;99.90;;;;;;5096123;28;20476;-81
2023/08/07 00:26:06;;;;;;;7.17;6.17;;;17.70;99.90;;;;;;5099021;28;20478;-83
2023/08/07 00:28:33;;;;;;;7.63;6.20;;;17.70;99.90;;;;;;5095204;28;20527;-81
2023/08/07 00:31:06;;;;;;;4.97;4.20;;;17.80;99.90;;;;;;5093669;28;20948;-83
2023/08/07 00:33:33;;;;;;;12.20;9.77;;;17.70;99.90;;;;;;5093049;28;20507;-83
2023/08/07 00:36:00;;;;;;;7.00;6.30;;;17.80;99.90;;;;;;5093396;28;20966;-82
2023/08/07 00:38:27;;;;;;;5.83;4.80;;;17.70;99.90;;;;;;5092652;28;20473;-84
2023/08/07 00:40:54;;;;;;;5.37;4.87;;;17.80;99.90;;;;;;5097671;28;20480;-81
2023/08/07 00:43:29;;;;;;;4.77;3.87;;;17.70;99.90;;;;;;5082627;28;20465;-83
2023/08/07 00:45:56;;;;;;;4.53;4.10;;;17.70;99.90;;;;;;5094540;28;20844;-81
2023/08/07 00:48:23;;;;;;;8.03;5.40;;;17.70;99.90;;;;;;5095919;28;20476;-82
2023/08/07 00:50:53;;;;;;;5.43;4.60;;;17.70;99.90;;;;;;5096829;28;20453;-83
2023/08/07 00:53:21;;;;;;;4.17;3.87;;;17.60;99.90;;;;;;5096389;28;20476;-81
2023/08/07 00:55:50;;;;;;;6.17;5.63;;;17.70;99.90;;;;;;5095755;28;20853;-82
2023/08/07 00:58:18;;;;;;;190.57;145.30;;;17.70;99.90;;;;;;5084414;28;20466;-83
2023/08/07 01:00:46;;;;;;;13.90;11.47;;;17.70;99.90;;;;;;5075741;28;20496;-82
2023/08/07 01:03:16;;;;;;;5.57;5.17;;;17.80;99.90;;;;;;5076491;28;20504;-83
2023/08/07 01:05:43;;;;;;;4.70;3.53;;;17.90;99.90;;;;;;5075064;28;20474;-83
2023/08/07 01:08:11;;;;;;;3.63;3.33;;;17.90;99.90;;;;;;5076090;28;20477;-83
2023/08/07 01:10:53;;;;;;;4.20;3.80;;;17.90;99.90;;;;;;5075526;28;20796;-82
2023/08/07 01:13:29;;;;;;;4.50;3.90;;;17.90;99.90;;;;;;5075840;28;20470;-83
2023/08/07 01:16:07;;;;;;;4.60;4.00;;;17.90;99.90;;;;;;5074668;28;20457;-82
2023/08/07 01:18:35;;;;;;;3.63;3.30;;;17.90;99.90;;;;;;5075948;28;20858;-82
2023/08/07 01:21:04;;;;;;;6.50;4.67;;;17.90;99.90;;;;;;5075491;28;20494;-81
2023/08/07 01:23:33;;;;;;;4.90;4.20;;;17.90;99.90;;;;;;5076033;28;20471;-80
2023/08/07 01:26:00;;;;;;;6.50;4.60;;;17.90;99.90;;;;;;5075777;28;20455;-82
2023/08/07 01:28:33;;;;;;;5.83;3.80;;;17.90;99.90;;;;;;5075783;28;20528;-83
2023/08/07 01:31:08;;;;;;;5.20;4.00;;;17.90;99.90;;;;;;5075281;28;20539;-82
2023/08/07 01:33:47;;;;;;;3.57;3.27;;;17.80;99.90;;;;;;5075927;28;20478;-82
2023/08/07 01:36:17;;;;;;;4.40;4.00;;;17.80;99.90;;;;;;5076149;28;20537;-81
2023/08/07 01:38:47;;;;;;;3.60;3.30;;;17.80;99.90;;;;;;5075304;28;20449;-83
2023/08/07 01:41:15;;;;;;;5.10;3.83;;;17.80;99.90;;;;;;5074875;28;20481;-80
2023/08/07 01:43:42;;;;;;;6.10;3.97;;;17.80;99.90;;;;;;5075189;28;20490;-81
2023/08/07 01:46:08;;;;;;;4.87;3.93;;;17.80;99.90;;;;;;5075270;28;20474;-80
2023/08/07 01:48:35;;;;;;;3.60;3.30;;;17.80;99.90;;;;;;5074879;28;20956;-80
2023/08/07 01:51:02;;;;;;;4.07;3.73;;;17.80;99.90;;;;;;5075322;28;20466;-81
2023/08/07 01:53:29;;;;;;;5.33;4.20;;;17.80;99.90;;;;;;5074325;28;20466;-82
2023/08/07 01:55:58;;;;;;;3.43;3.13;;;17.80;99.90;;;;;;5074925;28;20494;-82
2023/08/07 01:58:25;;;;;;;4.73;3.70;;;17.70;99.90;;;;;;5074172;28;20485;-81
2023/08/07 02:00:51;;;;;;;4.40;3.97;;;17.80;99.90;;;;;;5075031;28;20481;-81
2023/08/07 02:03:18;;;;;;;4.20;3.90;;;17.80;99.90;;;;;;5074985;28;20541;-82
2023/08/07 02:05:47;;;;;;;4.17;3.77;;;17.80;99.90;;;;;;5074601;28;20450;-83
2023/08/07 02:08:13;;;;;;;4.33;3.93;;;17.70;99.90;;;;;;5075107;28;20467;-82
2023/08/07 02:10:40;;;;;;;5.63;4.60;;;17.70;99.90;;;;;;5074444;28;20544;-82
2023/08/07 02:13:09;;;;;;;4.27;3.87;;;17.70;99.90;;;;;;5075035;28;20549;-83
2023/08/07 02:15:44;;;;;;;5.60;3.70;;;17.70;99.90;;;;;;5074272;28;20844;-81
2023/08/07 02:18:11;;;;;;;4.30;3.90;;;17.70;99.90;;;;;;5075846;28;20521;-83
2023/08/07 02:20:38;;;;;;;4.20;3.87;;;17.70;99.90;;;;;;5075724;28;20547;-81
2023/08/07 02:23:05;;;;;;;3.80;3.40;;;17.70;99.90;;;;;;5076160;28;20808;-83
2023/08/07 02:25:32;;;;;;;5.10;4.60;;;17.70;99.90;;;;;;5077803;28;20561;-82
2023/08/07 02:27:59;;;;;;;4.93;4.50;;;17.70;99.90;;;;;;5076346;28;20481;-81
2023/08/07 02:30:32;;;;;;;5.80;5.27;;;17.60;99.90;;;;;;5070773;28;20478;-82
2023/08/07 02:32:58;;;;;;;5.30;4.10;;;17.60;99.90;;;;;;5075534;28;20963;-81
2023/08/07 02:35:25;;;;;;;4.37;4.00;;;17.60;99.90;;;;;;5074998;28;20494;-83
2023/08/07 02:37:58;;;;;;;3.87;3.57;;;17.60;99.90;;;;;;5074759;28;20485;-81
2023/08/07 02:40:32;;;;;;;5.00;4.60;;;17.70;99.90;;;;;;5074414;28;20561;-81
2023/08/07 02:43:01;;;;;;;8.17;4.10;;;17.70;99.90;;;;;;5074318;28;20923;-82
2023/08/07 02:45:30;;;;;;;4.10;3.80;;;17.70;99.90;;;;;;5074367;28;20478;-81
2023/08/07 02:47:56;;;;;;;4.33;3.93;;;17.70;99.90;;;;;;5073673;28;20944;-82
2023/08/07 02:50:24;;;;;;;5.07;4.50;;;17.70;99.90;;;;;;5074289;28;20501;-83
2023/08/07 02:52:51;;;;;;;6.13;4.30;;;17.70;99.90;;;;;;5073256;28;20481;-82
2023/08/07 02:55:18;;;;;;;5.33;4.73;;;17.70;99.90;;;;;;5074279;28;20875;-83
2023/08/07 02:57:45;;;;;;;5.10;4.70;;;17.70;99.90;;;;;;5072947;28;20471;-81
2023/08/07 03:00:13;;;;;;;4.73;4.27;;;17.70;99.90;;;;;;5071202;28;20549;-83
2023/08/07 03:02:41;;;;;;;6.30;5.20;;;17.70;99.90;;;;;;5073650;28;20490;-82
2023/08/07 03:05:09;;;;;;;6.40;5.10;;;17.70;99.90;;;;;;5073298;28;20489;-83
2023/08/07 03:07:36;;;;;;;7.00;4.63;;;17.80;99.90;;;;;;5074055;28;20807;-82
2023/08/07 03:10:04;;;;;;;4.00;3.70;;;17.80;99.90;;;;;;5073713;28;20826;-81
2023/08/07 03:12:32;;;;;;;5.57;5.07;;;17.80;99.90;;;;;;5073920;28;20813;-81
2023/08/07 03:14:59;;;;;;;5.70;4.90;;;17.80;99.90;;;;;;5073306;28;20450;-82
2023/08/07 03:17:26;;;;;;;4.70;4.27;;;17.80;99.90;;;;;;5073861;28;20470;-83
2023/08/07 03:19:54;;;;;;;7.53;4.90;;;17.80;99.90;;;;;;5073223;28;20468;-81
2023/08/07 03:22:21;;;;;;;4.80;4.40;;;17.80;99.90;;;;;;5073442;28;20464;-81
2023/08/07 03:24:48;;;;;;;5.77;5.27;;;17.80;99.90;;;;;;5073039;28;20470;-81
2023/08/07 03:27:15;;;;;;;10.63;4.90;;;17.80;99.90;;;;;;5073920;28;20462;-82
2023/08/07 03:29:42;;;;;;;5.40;4.90;;;17.80;99.90;;;;;;5073031;28;20462;-81
2023/08/07 03:32:10;;;;;;;6.50;5.00;;;17.80;99.90;;;;;;5073743;28;20489;-81
2023/08/07 03:34:39;;;;;;;5.83;5.43;;;17.80;99.90;;;;;;5073577;28;20482;-81
2023/08/07 03:37:08;;;;;;;5.57;4.90;;;17.80;99.90;;;;;;5071747;28;20454;-81
2023/08/07 03:39:38;;;;;;;5.27;4.87;;;17.80;99.90;;;;;;5073272;28;20466;-83
2023/08/07 03:42:05;;;;;;;6.20;5.50;;;17.90;99.90;;;;;;5073989;28;20478;-82
2023/08/07 03:44:33;;;;;;;6.00;5.40;;;17.90;99.90;;;;;;5074009;28;21006;-83
2023/08/07 03:47:00;;;;;;;6.83;5.73;;;17.90;99.90;;;;;;5074467;28;20542;-81
2023/08/07 03:49:26;;;;;;;5.97;5.37;;;17.90;99.90;;;;;;5075196;28;20454;-81
2023/08/07 03:51:53;;;;;;;10.43;5.43;;;17.90;99.90;;;;;;5073752;28;20504;-81
2023/08/07 03:54:22;;;;;;;4.80;4.40;;;17.90;99.90;;;;;;5074412;28;20474;-82
2023/08/07 03:56:51;;;;;;;5.80;4.80;;;17.90;99.90;;;;;;5073477;28;20520;-81
2023/08/07 03:59:17;;;;;;;5.10;4.70;;;17.90;99.90;;;;;;5074444;28;20461;-81
2023/08/07 04:01:45;;;;;;;5.63;4.73;;;17.90;99.90;;;;;;5072834;28;20565;-83
2023/08/07 04:04:11;;;;;;;5.60;5.03;;;17.90;99.90;;;;;;5073596;28;20519;-82
2023/08/07 04:06:39;;;;;;;5.20;4.70;;;17.90;99.90;;;;;;5073677;28;20497;-82
2023/08/07 04:09:06;;;;;;;5.60;5.10;;;17.90;99.90;;;;;;5073230;28;20482;-83
2023/08/07 04:11:34;;;;;;;8.43;6.07;;;17.90;99.90;;;;;;5073758;28;20493;-83
2023/08/07 04:14:05;;;;;;;5.50;5.00;;;17.90;99.90;;;;;;5073117;28;20550;-83
2023/08/07 04:16:32;;;;;;;7.33;5.97;;;17.90;99.90;;;;;;5073580;28;20462;-83
2023/08/07 04:18:59;;;;;;;9.80;5.80;;;17.90;99.90;;;;;;5073454;28;20466;-82
2023/08/07 04:21:26;;;;;;;7.47;5.80;;;17.90;99.90;;;;;;5076265;28;20979;-81
2023/08/07 04:23:53;;;;;;;4.83;4.00;;;18.00;99.90;;;;;;5076612;28;20496;-83
2023/08/07 04:26:20;;;;;;;6.00;5.50;;;18.00;99.90;;;;;;5077754;28;20457;-82
2023/08/07 04:28:48;;;;;;;5.83;5.07;;;18.00;99.90;;;;;;5076916;28;20873;-83
2023/08/07 04:31:17;;;;;;;6.10;4.53;;;18.00;99.90;;;;;;5076357;28;20504;-83
2023/08/07 04:33:44;;;;;;;5.20;4.80;;;18.10;99.90;;;;;;5077007;28;20532;-83
2023/08/07 04:36:16;;;;;;;5.30;4.80;;;18.00;99.90;;;;;;5075699;28;20462;-83
2023/08/07 04:38:43;;;;;;;5.30;4.77;;;18.10;99.90;;;;;;5077263;28;20462;-83
2023/08/07 04:41:10;;;;;;;6.50;4.50;;;18.00;99.90;;;;;;5076657;28;20493;-83
2023/08/07 04:43:37;;;;;;;6.40;5.00;;;18.00;99.90;;;;;;5076709;28;20470;-81
2023/08/07 04:46:05;;;;;;;6.23;4.40;;;18.00;99.90;;;;;;5076309;28;20991;-83
2023/08/07 04:48:32;;;;;;;6.73;4.70;;;18.10;99.90;;;;;;5077070;28;20454;-82
2023/08/07 04:51:35;;;;;;;6.90;5.10;;;18.10;99.90;;;;;;5076050;28;20466;-81
2023/08/07 04:54:01;;;;;;;5.47;4.97;;;18.10;99.90;;;;;;5064637;28;20564;-82
2023/08/07 04:56:28;;;;;;;6.57;4.50;;;18.10;99.90;;;;;;5075441;28;20470;-82
2023/08/07 04:58:55;;;;;;;4.60;4.20;;;18.10;99.90;;;;;;5076453;28;20473;-81
2023/08/07 05:01:24;;;;;;;5.40;4.53;;;18.20;99.90;;;;;;5074757;28;20474;-81
2023/08/07 05:03:50;;;;;;;4.23;3.93;;;18.20;99.90;;;;;;5076030;28;20509;-81
2023/08/07 05:06:18;;;;;;;7.00;4.47;;;18.20;99.90;;;;;;5075421;28;20509;-81
2023/08/07 05:08:45;;;;;;;5.20;4.70;;;18.30;99.90;;;;;;5076912;28;20477;-81
2023/08/07 05:11:12;;;;;;;4.30;3.90;;;18.30;99.90;;;;;;5075565;28;20474;-82
2023/08/07 05:13:39;;;;;;;4.70;4.33;;;18.40;99.90;;;;;;5076078;28;20462;-83
2023/08/07 05:16:06;;;;;;;5.77;4.03;;;18.30;99.90;;;;;;5075765;28;20466;-82
2023/08/07 05:18:34;;;;;;;4.80;4.40;;;18.40;99.90;;;;;;5076157;28;20537;-83
2023/08/07 05:21:01;;;;;;;6.23;4.47;;;18.30;99.90;;;;;;5076620;28;20888;-81
2023/08/07 05:23:31;;;;;;;5.43;4.23;;;18.40;99.90;;;;;;5074762;28;20524;-81
2023/08/07 05:26:07;;;;;;;4.17;3.87;;;18.30;99.90;;;;;;5075188;28;20821;-82
2023/08/07 05:28:34;;;;;;;4.27;3.77;;;18.40;99.90;;;;;;5074537;28;20466;-82
2023/08/07 05:31:04;;;;;;;4.27;3.90;;;18.40;99.90;;;;;;5075696;28;20470;-81
2023/08/07 05:33:31;;;;;;;4.63;4.07;;;18.30;99.90;;;;;;5075172;28;20490;-83
2023/08/07 05:36:00;;;;;;;6.47;3.97;;;18.30;99.90;;;;;;5075354;28;20501;-83
2023/08/07 05:38:30;;;;;;;4.47;3.53;;;18.30;99.90;;;;;;5074266;28;20497;-84
2023/08/07 05:40:57;;;;;;;4.70;3.07;;;18.30;99.90;;;;;;5075884;28;20466;-82
2023/08/07 05:43:24;;;;;;;4.50;3.47;;;18.30;99.90;;;;;;5064981;28;20636;-82
2023/08/07 05:45:51;;;;;;;5.83;3.80;;;18.40;99.90;;;;;;5075509;28;20486;-82
2023/08/07 05:48:19;;;;;;;4.40;3.60;;;18.40;99.90;;;;;;5073139;28;20474;-81
2023/08/07 05:50:52;;;;;;;4.60;3.53;;;18.40;99.90;;;;;;5075148;28;20462;-81
2023/08/07 05:53:21;;;;;;;7.30;4.00;;;18.40;99.90;;;;;;5064597;28;20477;-83
2023/08/07 05:55:48;;;;;;;4.33;4.00;;;18.40;99.90;;;;;;5074067;28;20953;-81
2023/08/07 05:58:16;;;;;;;4.30;3.90;;;18.40;99.90;;;;;;5075382;28;20550;-82
2023/08/07 06:00:44;;;;;;;6.07;3.33;;;18.40;99.90;;;;;;5075215;28;20824;-82
2023/08/07 06:05:57;;;;;;;3.87;3.47;;;18.40;99.90;;;;;;5073040;28;20458;-80
2023/08/07 06:11:13;;;;;;;3.67;3.30;;;18.50;99.90;;;;;;5063697;28;21032;-81
2023/08/07 06:13:57;;;;;;;4.07;3.67;;;18.50;99.90;;;;;;5074736;28;20493;-81
2023/08/07 06:22:10;;;;;;;6.30;3.80;;;18.70;99.90;;;;;;5071386;28;20465;-83
2023/08/07 06:25:05;;;;;;;3.90;2.93;;;18.80;99.90;;;;;;5074288;28;20497;-82
2023/08/07 06:27:32;;;;;;;3.80;3.50;;;18.80;99.90;;;;;;5062231;28;21003;-84
2023/08/07 06:30:15;;;;;;;4.67;3.40;;;18.90;99.90;;;;;;5064271;28;20478;-84
2023/08/07 06:32:42;;;;;;;3.10;2.80;;;18.90;99.90;;;;;;5073114;28;20481;-83
2023/08/07 06:38:08;;;;;;;3.90;3.30;;;19.00;99.90;;;;;;5073405;28;20940;-81
2023/08/07 06:40:51;;;;;;;2.53;2.33;;;19.10;99.90;;;;;;5075521;28;20462;-81
2023/08/07 06:43:23;;;;;;;3.33;3.00;;;19.20;99.90;;;;;;5074658;28;20504;-82
2023/08/07 06:45:51;;;;;;;5.27;4.20;;;19.10;99.90;;;;;;5057313;28;20472;-83
2023/08/07 06:48:18;;;;;;;4.07;3.67;;;19.20;99.90;;;;;;5073880;28;20983;-82
2023/08/07 06:56:42;;;;;;;2.90;2.70;;;19.30;99.90;;;;;;5065613;28;20537;-83
2023/08/07 06:59:24;;;;;;;4.13;2.80;;;19.20;99.90;;;;;;5074250;28;20470;-81
2023/08/07 07:01:56;;;;;;;4.70;2.93;;;19.30;99.90;;;;;;5074451;28;20490;-82
2023/08/07 07:04:23;;;;;;;4.20;2.90;;;19.30;99.90;;;;;;5073495;28;20978;-81
2023/08/07 07:06:50;;;;;;;3.83;2.40;;;19.40;99.90;;;;;;5073539;28;20968;-81
2023/08/07 07:12:05;;;;;;;3.37;2.23;;;19.70;99.90;;;;;;5074231;28;20458;-80
2023/08/07 07:20:27;;;;;;;3.70;2.37;;;20.00;99.90;;;;;;5061513;28;20474;-81
2023/08/07 07:22:58;;;;;;;3.90;2.50;;;20.10;99.90;;;;;;5073665;28;20474;-81
2023/08/07 07:31:12;;;;;;;4.43;3.40;;;20.30;99.90;;;;;;5054504;28;20471;-81
2023/08/07 07:47:57;;;;;;;3.87;3.23;;;20.60;99.90;;;;;;5073653;28;20472;-80
2023/08/07 07:50:24;;;;;;;4.03;2.97;;;20.60;99.90;;;;;;5072892;28;20474;-82
2023/08/07 07:52:51;;;;;;;2.80;2.50;;;20.60;99.90;;;;;;5074104;28;20509;-81
2023/08/07 09:04:55;;;;;;;7.60;5.50;;;21.10;99.90;;;;;;5093509;28;20817;-81
2023/08/07 09:07:29;;;;;;;6.70;3.13;;;21.10;99.90;;;;;;5096219;28;20500;-82
2023/08/07 09:09:58;;;;;;;6.20;5.47;;;21.10;99.90;;;;;;5096298;28;20472;-81
2023/08/07 09:12:30;;;;;;;9.67;7.47;;;21.30;99.90;;;;;;5096458;28;20943;-82
2023/08/07 09:14:59;;;;;;;6.53;5.87;;;21.30;99.90;;;;;;5095783;28;20868;-81
2023/08/07 09:17:29;;;;;;;7.30;5.70;;;21.30;99.90;;;;;;5096679;28;20477;-81
2023/08/07 09:19:57;;;;;;;5.70;4.53;;;21.40;99.90;;;;;;5095294;28;20503;-83
2023/08/07 09:22:25;;;;;;;12.40;10.73;;;21.40;99.90;;;;;;5084684;28;20655;-81
2023/08/07 09:24:52;;;;;;;4.60;3.13;;;21.40;99.90;;;;;;5095668;28;20480;-82
2023/08/07 09:27:19;;;;;;;7.43;4.80;;;21.40;99.90;;;;;;5095659;28;20480;-82
2023/08/07 09:29:47;;;;;;;6.23;5.63;;;21.40;99.90;;;;;;5096394;28;20505;-82
2023/08/07 09:32:15;;;;;;;29.77;26.60;;;21.50;99.90;;;;;;5095555;28;20495;-81
2023/08/07 09:34:42;;;;;;;21.73;19.23;;;21.60;99.90;;;;;;5096061;28;20591;-80
2023/08/07 09:37:09;;;;;;;11.17;9.80;;;21.60;99.90;;;;;;5096488;28;20465;-81
2023/08/07 09:39:38;;;;;;;5.33;4.93;;;21.70;99.90;;;;;;5095643;28;20476;-80
2023/08/07 09:42:06;;;;;;;27.07;18.30;;;21.70;99.90;;;;;;5095642;28;21038;-81
2023/08/07 09:44:37;;;;;;;14.27;10.73;;;21.80;99.90;;;;;;5095605;28;20478;-81
2023/08/07 09:47:14;;;;;;;14.97;12.30;;;21.80;99.90;;;;;;5095014;28;20463;-81
2023/08/07 09:49:41;;;;;;;12.33;9.27;;;21.90;99.90;;;;;;5084757;28;20487;-82
2023/08/07 09:52:11;;;;;;;4.40;4.00;;;21.90;99.90;;;;;;5094839;28;20860;-82
2023/08/07 09:54:42;;;;;;;5.13;4.70;;;21.90;99.90;;;;;;5085347;28;20487;-81
2023/08/07 09:57:09;;;;;;;3.40;3.10;;;21.90;99.90;;;;;;5075048;28;20482;-82
2023/08/07 09:59:36;;;;;;;3.73;3.10;;;21.90;99.90;;;;;;5087584;28;20544;-81
2023/08/07 10:02:05;;;;;;;4.00;3.67;;;22.00;99.90;;;;;;5095399;28;20560;-82
2023/08/07 10:04:43;;;;;;;8.97;8.03;;;21.90;99.90;;;;;;5094891;28;20519;-81
2023/08/07 10:07:13;;;;;;;4.50;4.20;;;21.90;99.90;;;;;;5095283;28;20462;-82
2023/08/07 10:10:04;;;;;;;4.97;4.57;;;21.90;99.90;;;;;;5094552;28;20468;-81
2023/08/07 10:12:33;;;;;;;3.30;2.17;;;21.90;99.90;;;;;;5094842;28;20515;-81
2023/08/07 10:15:01;;;;;;;3.87;3.47;;;21.80;99.90;;;;;;5095049;28;20500;-81
2023/08/07 10:17:28;;;;;;;13.50;10.63;;;21.80;99.90;;;;;;5094017;28;20465;-82
2023/08/07 10:19:56;;;;;;;5.93;4.13;;;21.70;99.90;;;;;;5094049;28;20470;-82
2023/08/07 10:22:25;;;;;;;3.20;2.83;;;21.70;99.90;;;;;;5094129;28;20493;-82
2023/08/07 10:24:57;;;;;;;3.60;2.10;;;21.80;99.90;;;;;;5095244;28;21017;-81
2023/08/07 10:27:27;;;;;;;3.97;2.00;;;21.80;99.90;;;;;;5094146;28;20462;-82
2023/08/07 10:30:01;;;;;;;2.23;2.03;;;21.80;99.90;;;;;;5094914;28;20542;-81
2023/08/07 10:32:29;;;;;;;5.40;3.90;;;21.90;99.90;;;;;;5094203;28;20524;-82
2023/08/07 10:34:56;;;;;;;4.20;2.77;;;21.90;99.90;;;;;;5092832;28;20871;-81
2023/08/07 10:37:43;;;;;;;4.13;2.70;;;21.90;99.90;;;;;;5094193;28;20569;-81
2023/08/07 10:40:13;;;;;;;2.67;2.07;;;22.00;99.90;;;;;;5095721;28;21018;-82
2023/08/07 10:43:00;;;;;;;3.43;1.90;;;22.00;99.90;;;;;;5085257;28;20556;-82
2023/08/07 10:45:30;;;;;;;2.87;2.20;;;22.00;99.90;;;;;;5093737;28;20538;-83
2023/08/07 10:48:06;;;;;;;4.40;1.63;;;22.10;99.90;;;;;;5096243;28;20500;-82
2023/08/07 10:50:34;;;;;;;3.87;1.67;;;22.10;99.90;;;;;;5096033;28;20498;-81
2023/08/07 10:53:05;;;;;;;2.13;1.73;;;22.00;99.90;;;;;;5096074;28;20503;-81
2023/08/07 10:55:46;;;;;;;4.30;2.60;;;22.10;99.90;;;;;;5096149;28;20469;-81
2023/08/07 10:58:26;;;;;;;3.70;2.00;;;22.10;99.90;;;;;;5085344;28;20453;-81
2023/08/07 11:01:09;;;;;;;2.07;1.87;;;22.00;99.90;;;;;;5095748;28;20453;-81
2023/08/07 11:03:37;;;;;;;3.40;2.40;;;21.90;99.90;;;;;;5092285;28;20471;-81
2023/08/07 11:06:05;;;;;;;3.57;2.73;;;21.90;99.90;;;;;;5095448;28;20466;-81
2023/08/07 11:08:35;;;;;;;3.63;2.20;;;21.90;99.90;;;;;;5095191;28;20461;-82
2023/08/07 11:11:08;;;;;;;1.97;1.60;;;21.90;99.90;;;;;;5094649;28;20503;-81
2023/08/07 11:13:38;;;;;;;2.20;2.00;;;21.80;99.90;;;;;;5096335;28;20472;-81
2023/08/07 11:16:06;;;;;;;2.43;2.10;;;21.70;99.90;;;;;;5095437;28;20465;-82
2023/08/07 11:18:35;;;;;;;2.57;2.37;;;21.60;99.90;;;;;;5094855;28;20816;-81
2023/08/07 11:21:03;;;;;;;4.20;2.00;;;21.50;99.90;;;;;;5094582;28;20480;-82
2023/08/07 11:23:30;;;;;;;3.50;2.37;;;21.40;99.90;;;;;;5095276;28;20522;-82
2023/08/07 11:25:59;;;;;;;3.10;2.33;;;21.20;99.90;;;;;;5094877;28;20480;-82
2023/08/07 11:28:28;;;;;;;3.80;2.97;;;21.10;99.90;;;;;;5095013;28;20527;-81
2023/08/07 11:30:55;;;;;;;3.00;2.80;;;21.00;99.90;;;;;;5094188;28;20461;-81
2023/08/07 11:33:23;;;;;;;3.80;2.30;;;20.90;99.90;;;;;;5094994;28;20553;-81
2023/08/07 11:35:50;;;;;;;3.20;2.30;;;20.90;99.90;;;;;;5085864;28;20557;-82
2023/08/07 11:38:33;;;;;;;2.50;2.30;;;20.90;99.90;;;;;;5095016;28;20557;-81
2023/08/07 11:41:01;;;;;;;2.43;1.93;;;20.80;99.90;;;;;;5066610;28;20456;-82
2023/08/07 11:43:33;;;;;;;3.90;2.30;;;20.80;99.90;;;;;;5094006;28;20507;-81
2023/08/07 11:46:08;;;;;;;6.30;2.30;;;20.80;99.90;;;;;;5082056;28;20465;-81
2023/08/07 11:48:41;;;;;;;4.97;2.73;;;20.70;99.90;;;;;;5093997;28;20870;-81
2023/08/07 11:51:08;;;;;;;3.90;2.40;;;20.80;99.90;;;;;;5093136;28;20472;-82
2023/08/07 11:53:37;;;;;;;3.77;2.10;;;20.80;99.90;;;;;;5093379;28;20541;-82
2023/08/07 11:56:07;;;;;;;5.00;2.63;;;20.90;99.90;;;;;;5093324;28;20457;-81
2023/08/07 11:58:40;;;;;;;2.73;2.47;;;20.90;99.90;;;;;;5093707;28;20457;-81
2023/08/07 12:01:14;;;;;;;2.43;1.80;;;21.00;99.90;;;;;;5093486;28;20797;-81
2023/08/07 12:03:53;;;;;;;3.30;2.60;;;21.10;99.90;;;;;;5092527;28;20465;-82
2023/08/07 12:06:20;;;;;;;2.53;2.30;;;21.10;99.90;;;;;;5093685;28;20473;-81
2023/08/07 12:08:58;;;;;;;3.33;2.40;;;21.20;99.90;;;;;;5093219;28;20522;-81
2023/08/07 12:11:30;;;;;;;6.50;2.77;;;21.20;99.90;;;;;;5093571;28;20465;-81
2023/08/07 12:14:09;;;;;;;4.40;2.63;;;21.30;99.90;;;;;;5098578;28;20473;-81
2023/08/07 12:16:44;;;;;;;8.07;3.07;;;21.40;99.90;;;;;;5095758;28;20981;-82
2023/08/07 12:19:12;;;;;;;4.33;2.50;;;21.40;99.90;;;;;;5097600;28;20532;-82
2023/08/07 12:21:40;;;;;;;9.73;2.73;;;21.50;99.90;;;;;;5096999;28;21005;-83
2023/08/07 12:24:08;;;;;;;8.07;2.37;;;21.50;99.90;;;;;;5094812;28;20485;-82
2023/08/07 12:26:35;;;;;;;3.87;3.00;;;21.60;99.90;;;;;;5093017;28;20492;-81
2023/08/07 12:29:04;;;;;;;3.83;3.23;;;21.60;99.90;;;;;;5093900;28;20468;-82
2023/08/07 12:31:31;;;;;;;6.67;2.40;;;21.60;99.90;;;;;;5084640;28;20954;-82
2023/08/07 12:33:58;;;;;;;2.60;2.40;;;21.70;99.90;;;;;;5092540;28;20526;-82
2023/08/07 12:36:25;;;;;;;5.00;2.40;;;21.70;99.90;;;;;;5083990;28;20480;-82
2023/08/07 12:38:52;;;;;;;6.60;2.40;;;21.70;99.90;;;;;;5091765;28;20527;-82
2023/08/07 12:41:19;;;;;;;8.80;3.63;;;21.70;99.90;;;;;;5093563;28;20504;-82
2023/08/07 12:43:49;;;;;;;11.80;3.07;;;21.70;99.90;;;;;;5095648;28;20512;-82
2023/08/07 12:46:17;;;;;;;5.00;2.27;;;21.80;99.90;;;;;;5096905;28;20453;-82
2023/08/07 12:51:36;;;;;;;4.37;2.60;;;21.80;99.90;;;;;;5094565;28;20483;-82
2023/08/07 12:54:03;;;;;;;6.13;2.60;;;21.80;99.90;;;;;;5096244;28;20457;-82
2023/08/07 12:56:33;;;;;;;2.60;2.40;;;21.80;99.90;;;;;;5096602;28;20473;-82
2023/08/07 12:59:01;;;;;;;3.70;2.77;;;21.90;99.90;;;;;;5095978;28;20803;-82
2023/08/07 13:01:29;;;;;;;4.17;2.40;;;21.90;99.90;;;;;;5096730;28;20461;-83
2023/08/07 13:03:56;;;;;;;3.77;2.27;;;21.90;99.90;;;;;;5095843;28;20477;-81
2023/08/07 13:06:23;;;;;;;3.20;2.20;;;21.90;99.90;;;;;;5096406;28;20531;-81
2023/08/07 13:08:50;;;;;;;5.67;2.37;;;21.90;99.90;;;;;;5094781;28;20462;-82
2023/08/07 13:11:20;;;;;;;3.87;2.83;;;21.90;99.90;;;;;;5096581;28;20457;-82
2023/08/07 13:16:21;;;;;;;3.17;2.47;;;21.90;99.90;;;;;;5035713;28;20460;-81
2023/08/07 13:18:50;;;;;;;3.73;2.10;;;21.90;99.90;;;;;;5026840;28;20468;-82
2023/08/07 13:21:17;;;;;;;6.17;2.63;;;22.00;99.90;;;;;;5036818;28;20528;-81
2023/08/07 13:23:44;;;;;;;9.47;2.80;;;22.00;99.90;;;;;;5036145;28;20502;-81
2023/08/07 13:26:11;;;;;;;4.47;2.17;;;22.00;99.90;;;;;;5023937;28;20476;-82
2023/08/07 13:28:38;;;;;;;4.03;2.00;;;22.00;99.90;;;;;;5017683;28;20470;-82
2023/08/07 13:31:08;;;;;;;3.73;2.30;;;22.10;99.90;;;;;;5016889;28;20967;-82
2023/08/07 13:33:35;;;;;;;8.07;2.27;;;22.10;99.90;;;;;;5014391;28;20546;-82
2023/08/07 13:36:07;;;;;;;7.33;3.43;;;22.10;99.90;;;;;;5016570;28;20986;-82
2023/08/07 13:38:57;;;;;;;;;;;;;;;;;;;;;
2023/08/07 13:41:25;;;;;;;4.43;2.10;;;22.20;99.90;;;;;;5010000;28;20959;-82
2023/08/07 13:43:51;;;;;;;3.73;1.97;;;22.20;99.90;;;;;;5005603;28;21060;-82
2023/08/07 13:46:19;;;;;;;6.30;3.30;;;22.20;99.90;;;;;;5021971;28;20816;-82
2023/08/07 13:48:46;;;;;;;4.17;2.17;;;22.20;99.90;;;;;;5018507;28;20531;-82
2023/08/07 13:51:15;;;;;;;2.33;2.00;;;22.30;99.90;;;;;;5016220;28;20499;-81
2023/08/07 13:53:43;;;;;;;5.07;2.87;;;22.30;99.90;;;;;;5014305;28;20817;-83
2023/08/07 13:56:12;;;;;;;3.30;2.43;;;22.40;99.90;;;;;;5016180;28;20472;-82
2023/08/07 13:58:39;;;;;;;4.87;2.20;;;22.30;99.90;;;;;;5016005;28;20470;-82
2023/08/07 14:01:06;;;;;;;4.60;2.50;;;22.40;99.90;;;;;;5006030;28;20541;-81
2023/08/07 14:03:33;;;;;;;6.20;2.73;;;22.40;99.90;;;;;;5016278;28;20469;-82
2023/08/07 14:06:00;;;;;;;6.90;2.80;;;22.40;99.90;;;;;;5015238;28;20504;-82
2023/08/07 14:08:29;;;;;;;3.20;2.50;;;22.40;99.90;;;;;;5015678;28;20469;-82
2023/08/07 14:10:56;;;;;;;4.60;2.30;;;22.40;99.90;;;;;;5015240;28;20466;-82
2023/08/07 14:13:23;;;;;;;2.80;2.20;;;22.40;99.90;;;;;;5015605;28;20550;-82
2023/08/07 14:15:50;;;;;;;4.27;2.83;;;22.40;99.90;;;;;;5000951;28;20842;-82
2023/08/07 14:18:17;;;;;;;4.97;2.57;;;22.40;99.90;;;;;;5011653;28;20781;-81
2023/08/07 14:20:44;;;;;;;5.37;2.10;;;22.40;99.90;;;;;;5016234;28;20476;-81
2023/08/07 14:23:10;;;;;;;3.30;2.10;;;22.40;99.90;;;;;;5015853;28;20552;-82
2023/08/07 14:25:42;;;;;;;6.83;2.97;;;22.40;99.90;;;;;;5004806;28;20485;-81
2023/08/07 14:28:09;;;;;;;5.70;2.50;;;22.30;99.90;;;;;;5014525;28;20454;-82
2023/08/07 14:30:36;;;;;;;5.90;2.40;;;22.30;99.90;;;;;;5005283;28;20552;-82
2023/08/07 14:33:03;;;;;;;3.67;2.40;;;22.30;99.90;;;;;;5004865;28;20470;-82
2023/08/07 14:35:30;;;;;;;7.10;2.30;;;22.30;99.90;;;;;;4996069;28;20556;-82
2023/08/07 14:37:57;;;;;;;4.70;2.40;;;22.30;99.90;;;;;;4997091;28;21007;-82
2023/08/07 14:40:25;;;;;;;3.63;2.60;;;22.30;99.90;;;;;;5034950;28;20468;-82
2023/08/07 14:42:53;;;;;;;3.20;1.87;;;22.30;99.90;;;;;;5034725;28;20476;-82
2023/08/07 14:45:22;;;;;;;3.13;2.73;;;22.30;99.90;;;;;;5035014;28;20499;-82
2023/08/07 14:47:49;;;;;;;4.17;2.87;;;22.30;99.90;;;;;;5034462;28;20543;-82
2023/08/07 14:50:16;;;;;;;5.70;3.40;;;22.30;99.90;;;;;;4995749;28;20901;-82
2023/08/07 14:52:45;;;;;;;3.70;2.03;;;22.30;99.90;;;;;;5025835;28;20483;-82
2023/08/07 14:55:21;;;;;;;6.77;2.70;;;22.30;99.90;;;;;;5023163;28;21102;-82
2023/08/07 14:57:48;;;;;;;14.13;9.33;;;22.30;99.90;;;;;;5034159;28;20493;-82
2023/08/07 15:00:18;;;;;;;14.07;10.23;;;22.20;99.90;;;;;;5033704;28;20969;-82